sensor_id;sensor_type;location;lat;lon;timestamp;temperature;humidity
22923;DHT22;11627;51.322;22.816;2022-07-29T00:00:05;15.00;99.90
22923;DHT22;11627;51.322;22.816;2022-07-29T00:02:32;14.90;99.90
22923;DHT22;11627;51.322;22.816;2022-07-29T00:04:58;15.30;99.90
22923;DHT22;11627;51.322;22.816;2022-07-29T00:12:16;14.70;99.90
22923;DHT22;11627;51.322;22.816;2022-07-29T00:14:42;14.80;93.30
22923;DHT22;11627;51.322;22.816;2022-07-29T00:17:08;14.30;92.20
22923;DHT22;11627;51.322;22.816;2022-07-29T00:19:34;14.90;1.00
22923;DHT22;11627;51.322;22.816;2022-07-29T00:22:00;14.70;1.00
22923;DHT22;11627;51.322;22.816;2022-07-29T00:31:45;14.50;99.90
22923;DHT22;11627;51.322;22.816;2022-07-29T00:34:11;14.70;99.90
22923;DHT22;11627;51.322;22.816;2022-07-29T00:39:21;15.00;99.90
22923;DHT22;11627;51.322;22.816;2022-07-29T00:41:47;14.70;76.60
22923;DHT22;11627;51.322;22.816;2022-07-29T00:44:12;14.70;28.40
22923;DHT22;11627;51.322;22.816;2022-07-29T00:46:38;14.50;1.00
22923;DHT22;11627;51.322;22.816;2022-07-29T00:51:30;14.50;99.90
22923;DHT22;11627;51.322;22.816;2022-07-29T00:58:50;14.20;99.90
22923;DHT22;11627;51.322;22.816;2022-07-29T01:01:16;14.50;99.90
22923;DHT22;11627;51.322;22.816;2022-07-29T01:03:42;14.20;99.90
22923;DHT22;11627;51.322;22.816;2022-07-29T01:06:09;14.40;1.00
22923;DHT22;11627;51.322;22.816;2022-07-29T01:08:35;14.40;1.00
22923;DHT22;11627;51.322;22.816;2022-07-29T01:11:02;14.30;1.00
22923;DHT22;11627;51.322;22.816;2022-07-29T01:13:29;14.40;1.00
22923;DHT22;11627;51.322;22.816;2022-07-29T01:15:59;14.60;1.00
22923;DHT22;11627;51.322;22.816;2022-07-29T01:18:34;14.50;99.90
22923;DHT22;11627;51.322;22.816;2022-07-29T01:21:21;14.50;99.90
22923;DHT22;11627;51.322;22.816;2022-07-29T01:26:53;14.50;99.90
22923;DHT22;11627;51.322;22.816;2022-07-29T01:32:29;14.20;34.10
22923;DHT22;11627;51.322;22.816;2022-07-29T01:35:19;14.30;1.00
22923;DHT22;11627;51.322;22.816;2022-07-29T01:38:05;14.60;1.00
22923;DHT22;11627;51.322;22.816;2022-07-29T01:40:40;14.30;1.00
22923;DHT22;11627;51.322;22.816;2022-07-29T01:43:14;13.70;1.00
22923;DHT22;11627;51.322;22.816;2022-07-29T01:45:57;14.20;1.00
22923;DHT22;11627;51.322;22.816;2022-07-29T01:48:36;14.10;1.00
22923;DHT22;11627;51.322;22.816;2022-07-29T01:51:20;14.10;19.70
22923;DHT22;11627;51.322;22.816;2022-07-29T01:54:13;13.90;63.40
22923;DHT22;11627;51.322;22.816;2022-07-29T01:56:43;13.90;96.40
22923;DHT22;11627;51.322;22.816;2022-07-29T01:59:11;14.10;99.90
22923;DHT22;11627;51.322;22.816;2022-07-29T02:01:39;13.70;99.90
22923;DHT22;11627;51.322;22.816;2022-07-29T02:04:07;13.90;99.90
22923;DHT22;11627;51.322;22.816;2022-07-29T02:06:37;14.00;99.90
22923;DHT22;11627;51.322;22.816;2022-07-29T02:09:05;13.60;99.90
22923;DHT22;11627;51.322;22.816;2022-07-29T02:11:33;13.50;99.90
22923;DHT22;11627;51.322;22.816;2022-07-29T02:14:00;13.50;99.90
22923;DHT22;11627;51.322;22.816;2022-07-29T02:16:29;13.80;81.30
22923;DHT22;11627;51.322;22.816;2022-07-29T02:18:58;13.50;93.80
22923;DHT22;11627;51.322;22.816;2022-07-29T02:21:26;13.50;99.90
22923;DHT22;11627;51.322;22.816;2022-07-29T02:23:54;13.40;99.90
22923;DHT22;11627;51.322;22.816;2022-07-29T02:26:23;13.00;99.90
22923;DHT22;11627;51.322;22.816;2022-07-29T02:28:51;13.10;99.90
22923;DHT22;11627;51.322;22.816;2022-07-29T02:31:21;13.30;99.90
22923;DHT22;11627;51.322;22.816;2022-07-29T02:33:50;13.40;99.90
22923;DHT22;11627;51.322;22.816;2022-07-29T02:36:17;13.70;99.90
22923;DHT22;11627;51.322;22.816;2022-07-29T02:41:24;13.00;99.90
22923;DHT22;11627;51.322;22.816;2022-07-29T02:43:58;13.30;99.90
22923;DHT22;11627;51.322;22.816;2022-07-29T02:46:31;13.10;99.90
22923;DHT22;11627;51.322;22.816;2022-07-29T02:52:52;13.60;99.90
22923;DHT22;11627;51.322;22.816;2022-07-29T02:55:19;13.70;99.90
22923;DHT22;11627;51.322;22.816;2022-07-29T02:58:03;13.20;99.90
22923;DHT22;11627;51.322;22.816;2022-07-29T03:00:36;13.10;99.90
22923;DHT22;11627;51.322;22.816;2022-07-29T03:03:15;13.40;99.90
22923;DHT22;11627;51.322;22.816;2022-07-29T03:05:41;13.30;99.90
22923;DHT22;11627;51.322;22.816;2022-07-29T03:08:09;13.50;99.90
22923;DHT22;11627;51.322;22.816;2022-07-29T03:10:38;13.30;99.90
22923;DHT22;11627;51.322;22.816;2022-07-29T03:13:05;13.60;99.90
22923;DHT22;11627;51.322;22.816;2022-07-29T03:15:32;13.30;99.90
22923;DHT22;11627;51.322;22.816;2022-07-29T03:20:25;13.10;99.90
22923;DHT22;11627;51.322;22.816;2022-07-29T03:25:19;13.40;99.90
22923;DHT22;11627;51.322;22.816;2022-07-29T03:30:13;13.50;99.90
22923;DHT22;11627;51.322;22.816;2022-07-29T03:32:40;13.50;99.90
22923;DHT22;11627;51.322;22.816;2022-07-29T03:35:07;13.50;99.90
22923;DHT22;11627;51.322;22.816;2022-07-29T03:37:33;13.40;99.90
22923;DHT22;11627;51.322;22.816;2022-07-29T03:40:00;13.70;99.90
22923;DHT22;11627;51.322;22.816;2022-07-29T03:42:31;13.60;99.90
22923;DHT22;11627;51.322;22.816;2022-07-29T03:44:59;13.50;99.90
22923;DHT22;11627;51.322;22.816;2022-07-29T03:47:29;13.40;99.90
22923;DHT22;11627;51.322;22.816;2022-07-29T03:50:00;13.70;99.90
22923;DHT22;11627;51.322;22.816;2022-07-29T03:54:58;13.70;99.90
22923;DHT22;11627;51.322;22.816;2022-07-29T03:57:27;13.60;99.90
22923;DHT22;11627;51.322;22.816;2022-07-29T03:59:54;13.50;1.00
22923;DHT22;11627;51.322;22.816;2022-07-29T04:02:39;13.60;1.00
22923;DHT22;11627;51.322;22.816;2022-07-29T04:05:05;14.00;1.00
22923;DHT22;11627;51.322;22.816;2022-07-29T04:10:03;14.30;1.00
22923;DHT22;11627;51.322;22.816;2022-07-29T04:14:55;14.30;1.00
22923;DHT22;11627;51.322;22.816;2022-07-29T04:17:21;14.70;1.00
22923;DHT22;11627;51.322;22.816;2022-07-29T04:19:47;14.60;1.00
22923;DHT22;11627;51.322;22.816;2022-07-29T04:22:13;14.70;1.00
22923;DHT22;11627;51.322;22.816;2022-07-29T04:24:38;14.80;1.00
22923;DHT22;11627;51.322;22.816;2022-07-29T04:27:04;14.70;1.00
22923;DHT22;11627;51.322;22.816;2022-07-29T04:31:56;15.10;1.00
22923;DHT22;11627;51.322;22.816;2022-07-29T04:34:21;15.10;1.00
22923;DHT22;11627;51.322;22.816;2022-07-29T04:36:47;15.50;1.00
22923;DHT22;11627;51.322;22.816;2022-07-29T04:39:12;15.10;1.00
22923;DHT22;11627;51.322;22.816;2022-07-29T04:41:38;15.50;1.00
22923;DHT22;11627;51.322;22.816;2022-07-29T04:44:04;15.70;1.00
22923;DHT22;11627;51.322;22.816;2022-07-29T04:46:31;15.80;1.00
22923;DHT22;11627;51.322;22.816;2022-07-29T04:48:57;15.40;1.00
22923;DHT22;11627;51.322;22.816;2022-07-29T04:51:22;15.50;1.00
22923;DHT22;11627;51.322;22.816;2022-07-29T04:53:48;16.10;1.00
22923;DHT22;11627;51.322;22.816;2022-07-29T04:58:39;16.10;1.00
22923;DHT22;11627;51.322;22.816;2022-07-29T05:03:31;16.30;99.90
22923;DHT22;11627;51.322;22.816;2022-07-29T05:08:23;16.40;99.90
22923;DHT22;11627;51.322;22.816;2022-07-29T05:10:48;16.20;99.90
22923;DHT22;11627;51.322;22.816;2022-07-29T05:13:14;16.50;99.90
22923;DHT22;11627;51.322;22.816;2022-07-29T05:15:40;16.40;99.90
22923;DHT22;11627;51.322;22.816;2022-07-29T05:18:05;16.50;99.90
22923;DHT22;11627;51.322;22.816;2022-07-29T05:22:59;16.70;99.90
22923;DHT22;11627;51.322;22.816;2022-07-29T05:25:27;16.70;99.90
22923;DHT22;11627;51.322;22.816;2022-07-29T05:27:53;17.00;99.90
22923;DHT22;11627;51.322;22.816;2022-07-29T05:35:13;17.00;99.90
22923;DHT22;11627;51.322;22.816;2022-07-29T05:40:06;17.40;99.90
22923;DHT22;11627;51.322;22.816;2022-07-29T05:42:32;17.50;99.90
22923;DHT22;11627;51.322;22.816;2022-07-29T05:44:59;17.60;99.90
22923;DHT22;11627;51.322;22.816;2022-07-29T05:49:51;17.60;99.90
22923;DHT22;11627;51.322;22.816;2022-07-29T05:52:17;17.70;99.90
22923;DHT22;11627;51.322;22.816;2022-07-29T05:54:43;17.90;99.90
22923;DHT22;11627;51.322;22.816;2022-07-29T05:57:16;18.30;99.90
22923;DHT22;11627;51.322;22.816;2022-07-29T05:59:43;18.40;99.90
22923;DHT22;11627;51.322;22.816;2022-07-29T06:04:35;17.90;84.70
22923;DHT22;11627;51.322;22.816;2022-07-29T06:09:27;18.60;1.00
22923;DHT22;11627;51.322;22.816;2022-07-29T06:11:53;18.80;80.00
22923;DHT22;11627;51.322;22.816;2022-07-29T06:14:19;18.40;99.90
22923;DHT22;11627;51.322;22.816;2022-07-29T06:16:44;18.50;1.00
22923;DHT22;11627;51.322;22.816;2022-07-29T06:19:10;18.70;1.00
22923;DHT22;11627;51.322;22.816;2022-07-29T06:21:36;19.20;99.90
22923;DHT22;11627;51.322;22.816;2022-07-29T06:24:02;18.80;99.90
22923;DHT22;11627;51.322;22.816;2022-07-29T06:26:28;18.80;99.90
22923;DHT22;11627;51.322;22.816;2022-07-29T06:28:53;19.00;99.90
22923;DHT22;11627;51.322;22.816;2022-07-29T06:31:19;19.40;99.90
22923;DHT22;11627;51.322;22.816;2022-07-29T06:33:44;19.50;99.90
22923;DHT22;11627;51.322;22.816;2022-07-29T06:36:10;19.30;26.80
22923;DHT22;11627;51.322;22.816;2022-07-29T06:38:36;19.70;99.90
22923;DHT22;11627;51.322;22.816;2022-07-29T06:41:03;19.40;99.90
22923;DHT22;11627;51.322;22.816;2022-07-29T06:43:36;19.70;99.90
22923;DHT22;11627;51.322;22.816;2022-07-29T06:46:05;19.60;99.90
22923;DHT22;11627;51.322;22.816;2022-07-29T06:48:35;19.70;99.90
22923;DHT22;11627;51.322;22.816;2022-07-29T06:51:02;19.60;59.50
22923;DHT22;11627;51.322;22.816;2022-07-29T06:53:29;20.10;1.00
22923;DHT22;11627;51.322;22.816;2022-07-29T06:58:23;20.10;1.00
22923;DHT22;11627;51.322;22.816;2022-07-29T07:00:49;19.90;1.00
22923;DHT22;11627;51.322;22.816;2022-07-29T07:03:16;20.00;99.90
22923;DHT22;11627;51.322;22.816;2022-07-29T07:05:42;20.10;99.90
22923;DHT22;11627;51.322;22.816;2022-07-29T07:08:09;20.20;99.90
22923;DHT22;11627;51.322;22.816;2022-07-29T07:10:35;20.20;99.90
22923;DHT22;11627;51.322;22.816;2022-07-29T07:13:01;20.60;99.90
22923;DHT22;11627;51.322;22.816;2022-07-29T07:15:28;20.50;99.90
22923;DHT22;11627;51.322;22.816;2022-07-29T07:17:53;20.50;99.90
22923;DHT22;11627;51.322;22.816;2022-07-29T07:20:19;20.50;99.90
22923;DHT22;11627;51.322;22.816;2022-07-29T07:22:45;20.80;99.90
22923;DHT22;11627;51.322;22.816;2022-07-29T07:25:11;21.00;48.00
22923;DHT22;11627;51.322;22.816;2022-07-29T07:27:38;21.10;1.00
22923;DHT22;11627;51.322;22.816;2022-07-29T07:30:05;20.70;1.00
22923;DHT22;11627;51.322;22.816;2022-07-29T07:32:35;20.60;1.00
22923;DHT22;11627;51.322;22.816;2022-07-29T07:35:00;21.20;1.00
22923;DHT22;11627;51.322;22.816;2022-07-29T07:37:26;20.90;1.00
22923;DHT22;11627;51.322;22.816;2022-07-29T07:39:52;20.70;99.90
22923;DHT22;11627;51.322;22.816;2022-07-29T07:42:19;20.90;99.90
22923;DHT22;11627;51.322;22.816;2022-07-29T07:44:45;20.80;99.90
22923;DHT22;11627;51.322;22.816;2022-07-29T07:47:12;21.40;99.90
22923;DHT22;11627;51.322;22.816;2022-07-29T07:49:38;21.30;99.90
22923;DHT22;11627;51.322;22.816;2022-07-29T07:52:04;20.90;99.90
22923;DHT22;11627;51.322;22.816;2022-07-29T07:54:30;21.50;55.90
22923;DHT22;11627;51.322;22.816;2022-07-29T07:56:56;21.30;32.00
22923;DHT22;11627;51.322;22.816;2022-07-29T07:59:22;21.50;1.00
22923;DHT22;11627;51.322;22.816;2022-07-29T08:01:49;21.70;19.80
22923;DHT22;11627;51.322;22.816;2022-07-29T08:04:15;21.50;1.00
22923;DHT22;11627;51.322;22.816;2022-07-29T08:06:40;21.50;1.00
22923;DHT22;11627;51.322;22.816;2022-07-29T08:09:06;21.60;1.00
22923;DHT22;11627;51.322;22.816;2022-07-29T08:11:32;21.60;99.90
22923;DHT22;11627;51.322;22.816;2022-07-29T08:13:58;21.90;99.90
22923;DHT22;11627;51.322;22.816;2022-07-29T08:16:24;21.90;99.90
22923;DHT22;11627;51.322;22.816;2022-07-29T08:18:50;21.90;99.90
22923;DHT22;11627;51.322;22.816;2022-07-29T08:21:17;21.80;99.90
22923;DHT22;11627;51.322;22.816;2022-07-29T08:23:44;21.80;95.00
22923;DHT22;11627;51.322;22.816;2022-07-29T08:26:13;21.70;31.90
22923;DHT22;11627;51.322;22.816;2022-07-29T08:28:40;21.60;20.80
22923;DHT22;11627;51.322;22.816;2022-07-29T08:31:10;22.90;80.40
22923;DHT22;11627;51.322;22.816;2022-07-29T08:33:35;21.70;99.90
22923;DHT22;11627;51.322;22.816;2022-07-29T08:36:01;22.10;99.90
22923;DHT22;11627;51.322;22.816;2022-07-29T08:38:27;21.80;99.90
22923;DHT22;11627;51.322;22.816;2022-07-29T08:40:53;22.20;96.70
22923;DHT22;11627;51.322;22.816;2022-07-29T08:43:19;22.40;99.90
22923;DHT22;11627;51.322;22.816;2022-07-29T08:45:47;22.50;76.40
22923;DHT22;11627;51.322;22.816;2022-07-29T08:48:16;22.30;1.00
22923;DHT22;11627;51.322;22.816;2022-07-29T08:50:44;22.50;58.40
22923;DHT22;11627;51.322;22.816;2022-07-29T08:53:12;22.40;47.10
22923;DHT22;11627;51.322;22.816;2022-07-29T08:55:42;22.60;14.30
22923;DHT22;11627;51.322;22.816;2022-07-29T08:58:09;22.40;1.00
22923;DHT22;11627;51.322;22.816;2022-07-29T09:00:51;22.80;1.00
22923;DHT22;11627;51.322;22.816;2022-07-29T09:03:20;22.50;1.00
22923;DHT22;11627;51.322;22.816;2022-07-29T09:05:48;22.70;1.00
22923;DHT22;11627;51.322;22.816;2022-07-29T09:08:15;22.70;1.00
22923;DHT22;11627;51.322;22.816;2022-07-29T09:10:42;22.70;1.00
22923;DHT22;11627;51.322;22.816;2022-07-29T09:13:08;24.30;1.00
22923;DHT22;11627;51.322;22.816;2022-07-29T09:15:34;22.90;1.00
22923;DHT22;11627;51.322;22.816;2022-07-29T09:18:00;22.90;1.00
22923;DHT22;11627;51.322;22.816;2022-07-29T09:20:26;22.90;99.90
22923;DHT22;11627;51.322;22.816;2022-07-29T09:23:13;22.90;1.00
22923;DHT22;11627;51.322;22.816;2022-07-29T09:25:40;23.20;1.00
22923;DHT22;11627;51.322;22.816;2022-07-29T09:28:08;23.40;1.00
22923;DHT22;11627;51.322;22.816;2022-07-29T09:31:04;24.60;99.90
22923;DHT22;11627;51.322;22.816;2022-07-29T09:33:34;24.40;99.90
22923;DHT22;11627;51.322;22.816;2022-07-29T09:36:05;23.20;99.90
22923;DHT22;11627;51.322;22.816;2022-07-29T09:38:33;23.20;99.90
22923;DHT22;11627;51.322;22.816;2022-07-29T09:41:02;23.20;99.90
22923;DHT22;11627;51.322;22.816;2022-07-29T09:43:29;22.90;99.90
22923;DHT22;11627;51.322;22.816;2022-07-29T09:45:55;23.30;99.90
22923;DHT22;11627;51.322;22.816;2022-07-29T09:48:23;23.00;99.90
22923;DHT22;11627;51.322;22.816;2022-07-29T09:50:50;23.30;99.90
22923;DHT22;11627;51.322;22.816;2022-07-29T09:55:58;23.20;99.90
22923;DHT22;11627;51.322;22.816;2022-07-29T09:58:23;23.70;99.90
22923;DHT22;11627;51.322;22.816;2022-07-29T10:00:51;23.30;99.90
22923;DHT22;11627;51.322;22.816;2022-07-29T10:03:18;23.50;99.90
22923;DHT22;11627;51.322;22.816;2022-07-29T10:05:44;23.60;99.90
22923;DHT22;11627;51.322;22.816;2022-07-29T10:08:12;23.30;99.90
22923;DHT22;11627;51.322;22.816;2022-07-29T10:10:42;23.60;99.90
22923;DHT22;11627;51.322;22.816;2022-07-29T10:13:14;23.90;99.90
22923;DHT22;11627;51.322;22.816;2022-07-29T10:15:41;23.90;99.90
22923;DHT22;11627;51.322;22.816;2022-07-29T10:18:11;23.70;99.90
22923;DHT22;11627;51.322;22.816;2022-07-29T10:20:38;23.70;99.90
22923;DHT22;11627;51.322;22.816;2022-07-29T10:23:05;23.80;99.90
22923;DHT22;11627;51.322;22.816;2022-07-29T10:25:31;23.30;99.90
22923;DHT22;11627;51.322;22.816;2022-07-29T10:27:57;23.60;98.30
22923;DHT22;11627;51.322;22.816;2022-07-29T10:30:25;23.60;97.40
22923;DHT22;11627;51.322;22.816;2022-07-29T10:42:20;24.00;98.40
22923;DHT22;11627;51.322;22.816;2022-07-29T10:44:50;24.90;85.80
22923;DHT22;11627;51.322;22.816;2022-07-29T10:47:24;24.20;82.60
22923;DHT22;11627;51.322;22.816;2022-07-29T10:49:57;24.40;97.60
22923;DHT22;11627;51.322;22.816;2022-07-29T10:55:37;24.40;99.90
22923;DHT22;11627;51.322;22.816;2022-07-29T10:58:15;24.50;96.80
22923;DHT22;11627;51.322;22.816;2022-07-29T11:00:44;24.60;22.50
22923;DHT22;11627;51.322;22.816;2022-07-29T11:03:46;24.70;21.40
22923;DHT22;11627;51.322;22.816;2022-07-29T11:06:13;24.20;99.90
22923;DHT22;11627;51.322;22.816;2022-07-29T11:08:40;24.30;15.30
22923;DHT22;11627;51.322;22.816;2022-07-29T11:16:16;24.60;1.00
22923;DHT22;11627;51.322;22.816;2022-07-29T11:21:44;24.50;1.00
22923;DHT22;11627;51.322;22.816;2022-07-29T11:24:35;24.40;1.00
22923;DHT22;11627;51.322;22.816;2022-07-29T11:27:19;24.50;1.00
22923;DHT22;11627;51.322;22.816;2022-07-29T11:29:55;24.50;1.00
22923;DHT22;11627;51.322;22.816;2022-07-29T11:32:24;24.40;64.40
22923;DHT22;11627;51.322;22.816;2022-07-29T11:35:13;25.70;1.00
22923;DHT22;11627;51.322;22.816;2022-07-29T11:37:40;24.80;64.00
22923;DHT22;11627;51.322;22.816;2022-07-29T11:45:22;25.70;1.00
22923;DHT22;11627;51.322;22.816;2022-07-29T11:47:51;25.10;1.00
22923;DHT22;11627;51.322;22.816;2022-07-29T11:50:31;25.20;1.00
22923;DHT22;11627;51.322;22.816;2022-07-29T11:52:59;25.40;7.50
22923;DHT22;11627;51.322;22.816;2022-07-29T11:55:25;26.00;1.00
22923;DHT22;11627;51.322;22.816;2022-07-29T11:57:54;24.90;1.00
22923;DHT22;11627;51.322;22.816;2022-07-29T12:00:56;25.20;37.80
22923;DHT22;11627;51.322;22.816;2022-07-29T12:03:24;25.10;1.00
22923;DHT22;11627;51.322;22.816;2022-07-29T12:05:51;25.00;1.00
22923;DHT22;11627;51.322;22.816;2022-07-29T12:08:19;25.40;1.00
22923;DHT22;11627;51.322;22.816;2022-07-29T12:10:51;25.30;1.00
22923;DHT22;11627;51.322;22.816;2022-07-29T12:13:19;25.40;1.00
22923;DHT22;11627;51.322;22.816;2022-07-29T12:15:53;26.90;1.00
22923;DHT22;11627;51.322;22.816;2022-07-29T12:18:20;25.60;1.00
22923;DHT22;11627;51.322;22.816;2022-07-29T12:20:47;25.60;1.00
22923;DHT22;11627;51.322;22.816;2022-07-29T12:23:13;25.70;1.00
22923;DHT22;11627;51.322;22.816;2022-07-29T12:25:42;25.60;1.00
22923;DHT22;11627;51.322;22.816;2022-07-29T12:28:13;25.70;1.00
22923;DHT22;11627;51.322;22.816;2022-07-29T12:30:43;26.10;1.00
22923;DHT22;11627;51.322;22.816;2022-07-29T12:33:29;26.10;1.00
22923;DHT22;11627;51.322;22.816;2022-07-29T12:36:00;26.00;1.00
22923;DHT22;11627;51.322;22.816;2022-07-29T12:38:27;26.00;1.00
22923;DHT22;11627;51.322;22.816;2022-07-29T12:40:53;26.10;1.00
22923;DHT22;11627;51.322;22.816;2022-07-29T12:43:21;26.00;1.00
22923;DHT22;11627;51.322;22.816;2022-07-29T12:45:53;27.00;1.00
22923;DHT22;11627;51.322;22.816;2022-07-29T12:48:40;26.00;1.00
22923;DHT22;11627;51.322;22.816;2022-07-29T12:51:08;26.60;1.00
22923;DHT22;11627;51.322;22.816;2022-07-29T12:53:36;26.90;1.00
22923;DHT22;11627;51.322;22.816;2022-07-29T12:56:05;26.40;1.00
22923;DHT22;11627;51.322;22.816;2022-07-29T12:58:39;26.40;1.00
22923;DHT22;11627;51.322;22.816;2022-07-29T13:01:09;26.40;1.00
22923;DHT22;11627;51.322;22.816;2022-07-29T13:03:46;26.40;1.00
22923;DHT22;11627;51.322;22.816;2022-07-29T13:06:42;26.40;1.00
22923;DHT22;11627;51.322;22.816;2022-07-29T13:14:13;26.20;1.00
22923;DHT22;11627;51.322;22.816;2022-07-29T13:17:13;26.40;1.00
22923;DHT22;11627;51.322;22.816;2022-07-29T13:19:49;26.50;99.90
22923;DHT22;11627;51.322;22.816;2022-07-29T13:22:22;26.50;99.90
22923;DHT22;11627;51.322;22.816;2022-07-29T13:24:53;26.50;99.90
22923;DHT22;11627;51.322;22.816;2022-07-29T13:27:23;26.50;99.90
22923;DHT22;11627;51.322;22.816;2022-07-29T13:29:50;26.50;99.90
22923;DHT22;11627;51.322;22.816;2022-07-29T13:32:20;26.50;99.90
22923;DHT22;11627;51.322;22.816;2022-07-29T13:34:47;27.10;99.90
22923;DHT22;11627;51.322;22.816;2022-07-29T13:37:12;26.40;99.90
22923;DHT22;11627;51.322;22.816;2022-07-29T13:39:38;26.40;99.90
22923;DHT22;11627;51.322;22.816;2022-07-29T13:42:05;26.40;99.90
22923;DHT22;11627;51.322;22.816;2022-07-29T13:44:32;26.30;99.90
22923;DHT22;11627;51.322;22.816;2022-07-29T13:46:57;26.90;99.90
22923;DHT22;11627;51.322;22.816;2022-07-29T13:49:24;27.50;99.90
22923;DHT22;11627;51.322;22.816;2022-07-29T13:51:50;26.40;99.90
22923;DHT22;11627;51.322;22.816;2022-07-29T13:54:16;26.40;99.90
22923;DHT22;11627;51.322;22.816;2022-07-29T13:56:42;26.40;99.90
22923;DHT22;11627;51.322;22.816;2022-07-29T13:59:07;26.50;99.90
22923;DHT22;11627;51.322;22.816;2022-07-29T14:01:34;26.50;99.90
22923;DHT22;11627;51.322;22.816;2022-07-29T14:04:00;26.40;99.90
22923;DHT22;11627;51.322;22.816;2022-07-29T14:06:26;26.40;99.90
22923;DHT22;11627;51.322;22.816;2022-07-29T14:08:52;26.40;99.90
22923;DHT22;11627;51.322;22.816;2022-07-29T14:11:18;26.30;99.90
22923;DHT22;11627;51.322;22.816;2022-07-29T14:13:43;26.30;99.90
22923;DHT22;11627;51.322;22.816;2022-07-29T14:16:09;26.40;99.90
22923;DHT22;11627;51.322;22.816;2022-07-29T14:18:35;26.70;99.90
22923;DHT22;11627;51.322;22.816;2022-07-29T14:21:00;26.20;99.90
22923;DHT22;11627;51.322;22.816;2022-07-29T14:23:27;26.00;99.90
22923;DHT22;11627;51.322;22.816;2022-07-29T14:25:52;26.30;99.90
22923;DHT22;11627;51.322;22.816;2022-07-29T14:28:18;27.70;99.90
22923;DHT22;11627;51.322;22.816;2022-07-29T14:30:44;26.30;99.90
22923;DHT22;11627;51.322;22.816;2022-07-29T14:33:10;26.30;99.90
22923;DHT22;11627;51.322;22.816;2022-07-29T14:35:35;26.30;99.90
22923;DHT22;11627;51.322;22.816;2022-07-29T14:38:01;26.30;1.00
22923;DHT22;11627;51.322;22.816;2022-07-29T14:40:27;26.30;99.90
22923;DHT22;11627;51.322;22.816;2022-07-29T14:42:52;26.30;99.90
22923;DHT22;11627;51.322;22.816;2022-07-29T14:45:18;25.80;1.00
22923;DHT22;11627;51.322;22.816;2022-07-29T14:47:44;26.20;99.90
22923;DHT22;11627;51.322;22.816;2022-07-29T14:50:09;26.10;99.90
22923;DHT22;11627;51.322;22.816;2022-07-29T14:52:35;26.00;99.90
22923;DHT22;11627;51.322;22.816;2022-07-29T14:55:02;26.10;99.90
22923;DHT22;11627;51.322;22.816;2022-07-29T14:57:28;26.00;99.90
22923;DHT22;11627;51.322;22.816;2022-07-29T14:59:54;26.10;1.00
22923;DHT22;11627;51.322;22.816;2022-07-29T15:02:20;25.90;99.90
22923;DHT22;11627;51.322;22.816;2022-07-29T15:04:46;26.20;99.90
22923;DHT22;11627;51.322;22.816;2022-07-29T15:07:13;25.80;99.90
22923;DHT22;11627;51.322;22.816;2022-07-29T15:09:40;25.70;1.00
22923;DHT22;11627;51.322;22.816;2022-07-29T15:12:06;26.60;99.90
22923;DHT22;11627;51.322;22.816;2022-07-29T15:14:32;26.30;1.00
22923;DHT22;11627;51.322;22.816;2022-07-29T15:16:58;26.30;99.90
22923;DHT22;11627;51.322;22.816;2022-07-29T15:21:50;27.00;99.90
22923;DHT22;11627;51.322;22.816;2022-07-29T15:24:16;26.80;99.90
22923;DHT22;11627;51.322;22.816;2022-07-29T15:26:42;26.70;99.90
22923;DHT22;11627;51.322;22.816;2022-07-29T15:29:08;26.60;1.00
22923;DHT22;11627;51.322;22.816;2022-07-29T15:31:34;26.90;99.90
22923;DHT22;11627;51.322;22.816;2022-07-29T15:34:00;27.10;99.90
22923;DHT22;11627;51.322;22.816;2022-07-29T15:36:25;26.60;99.90
22923;DHT22;11627;51.322;22.816;2022-07-29T15:38:54;26.80;99.90
22923;DHT22;11627;51.322;22.816;2022-07-29T15:41:20;26.20;99.90
22923;DHT22;11627;51.322;22.816;2022-07-29T15:43:47;26.00;99.90
22923;DHT22;11627;51.322;22.816;2022-07-29T15:46:14;25.80;1.00
22923;DHT22;11627;51.322;22.816;2022-07-29T15:49:01;25.60;1.00
22923;DHT22;11627;51.322;22.816;2022-07-29T15:51:28;26.20;99.90
22923;DHT22;11627;51.322;22.816;2022-07-29T15:53:54;25.30;1.00
22923;DHT22;11627;51.322;22.816;2022-07-29T15:56:20;25.20;99.90
22923;DHT22;11627;51.322;22.816;2022-07-29T15:58:46;24.80;1.00
22923;DHT22;11627;51.322;22.816;2022-07-29T16:01:11;25.00;99.90
22923;DHT22;11627;51.322;22.816;2022-07-29T16:03:37;25.30;1.00
22923;DHT22;11627;51.322;22.816;2022-07-29T16:06:03;24.70;1.00
22923;DHT22;11627;51.322;22.816;2022-07-29T16:08:29;24.90;99.90
22923;DHT22;11627;51.322;22.816;2022-07-29T16:10:55;24.90;99.90
22923;DHT22;11627;51.322;22.816;2022-07-29T16:13:20;24.90;99.90
22923;DHT22;11627;51.322;22.816;2022-07-29T16:15:46;25.30;1.00
22923;DHT22;11627;51.322;22.816;2022-07-29T16:18:12;25.40;99.90
22923;DHT22;11627;51.322;22.816;2022-07-29T16:20:39;25.30;1.00
22923;DHT22;11627;51.322;22.816;2022-07-29T16:25:34;25.90;1.00
22923;DHT22;11627;51.322;22.816;2022-07-29T16:28:00;25.80;1.00
22923;DHT22;11627;51.322;22.816;2022-07-29T16:30:26;25.60;99.90
22923;DHT22;11627;51.322;22.816;2022-07-29T16:32:52;26.10;1.00
22923;DHT22;11627;51.322;22.816;2022-07-29T16:35:18;26.50;1.00
22923;DHT22;11627;51.322;22.816;2022-07-29T16:37:43;26.00;1.00
22923;DHT22;11627;51.322;22.816;2022-07-29T16:40:09;26.30;99.90
22923;DHT22;11627;51.322;22.816;2022-07-29T16:42:35;26.50;99.90
22923;DHT22;11627;51.322;22.816;2022-07-29T16:45:01;27.00;99.90
22923;DHT22;11627;51.322;22.816;2022-07-29T16:49:53;27.70;99.90
22923;DHT22;11627;51.322;22.816;2022-07-29T16:52:18;28.70;99.90
22923;DHT22;11627;51.322;22.816;2022-07-29T16:54:44;29.90;99.90
22923;DHT22;11627;51.322;22.816;2022-07-29T16:57:10;29.10;99.90
22923;DHT22;11627;51.322;22.816;2022-07-29T16:59:36;29.30;99.90
22923;DHT22;11627;51.322;22.816;2022-07-29T17:02:03;29.60;99.90
22923;DHT22;11627;51.322;22.816;2022-07-29T17:04:29;29.50;99.90
22923;DHT22;11627;51.322;22.816;2022-07-29T17:06:56;29.40;99.90
22923;DHT22;11627;51.322;22.816;2022-07-29T17:09:22;29.20;99.90
22923;DHT22;11627;51.322;22.816;2022-07-29T17:11:48;29.70;99.90
22923;DHT22;11627;51.322;22.816;2022-07-29T17:14:24;29.50;99.90
22923;DHT22;11627;51.322;22.816;2022-07-29T17:16:52;29.60;99.90
22923;DHT22;11627;51.322;22.816;2022-07-29T17:19:19;28.50;99.90
22923;DHT22;11627;51.322;22.816;2022-07-29T17:21:45;28.10;99.90
22923;DHT22;11627;51.322;22.816;2022-07-29T17:24:11;27.50;99.90
22923;DHT22;11627;51.322;22.816;2022-07-29T17:26:36;27.70;99.90